Time;durP1;ratioP1;P1;durP2;ratioP2;P2;SDS_P1;SDS_P2;PMS_P1;PMS_P2;Temp;Humidity;BMP_temperature;BMP_pressure;BME280_temperature;BME280_humidity;BME280_pressure;Samples;Min_cycle;Max_cycle;Signal;HPM_P1;HPM_P2
2022/04/10 00:01:58;;;;;;;4.63;2.08;;;;;;;4.53;77.56;101015.38;5043050;28;20041;-76
2022/04/10 00:04:23;;;;;;;2.28;1.40;;;;;;;4.44;78.39;100998.31;5046375;28;20095;-77
2022/04/10 00:06:49;;;;;;;5.13;1.75;;;;;;;4.40;78.33;100984.44;5058828;28;20060;-77
2022/04/10 00:09:15;;;;;;;4.95;2.50;;;;;;;4.48;78.50;100998.94;5069713;28;20026;-76
2022/04/10 00:11:40;;;;;;;5.53;1.88;;;;;;;4.52;78.60;101001.19;5084881;28;20478;-76
2022/04/10 00:14:06;;;;;;;3.45;1.70;;;;;;;4.46;78.93;101004.38;5037755;28;20407;-76
2022/04/10 00:16:32;;;;;;;4.03;1.58;;;;;;;4.45;79.80;100991.22;5034854;28;20060;-76
2022/04/10 00:19:04;;;;;;;4.47;1.35;;;;;;;4.35;79.95;100984.00;5052464;28;20029;-76
2022/04/10 00:21:31;;;;;;;3.13;1.77;;;;;;;4.40;79.85;100996.91;5081696;28;20036;-76
2022/04/10 00:23:56;;;;;;;5.22;1.48;;;;;;;4.30;80.38;100986.19;5057796;28;20051;-77
2022/04/10 00:26:22;;;;;;;3.15;1.48;;;;;;;4.24;80.28;100978.72;5045534;28;20029;-76
2022/04/10 00:28:53;;;;;;;4.07;1.38;;;;;;;4.17;80.67;100985.53;5054270;28;20474;-76
2022/04/10 00:31:19;;;;;;;2.05;1.33;;;;;;;4.07;81.70;100969.50;5061383;28;20090;-77
2022/04/10 00:33:46;;;;;;;2.53;1.30;;;;;;;4.18;81.41;100977.44;5057728;28;20036;-76
2022/04/10 00:36:14;;;;;;;4.30;1.50;;;;;;;4.13;81.15;100952.19;5058284;28;20115;-77
2022/04/10 00:38:40;;;;;;;5.32;1.40;;;;;;;4.29;81.24;100970.38;5035656;28;20032;-76
2022/04/10 00:41:06;;;;;;;3.30;1.50;;;;;;;4.32;81.28;100965.63;5049410;28;20033;-76
2022/04/10 00:43:32;;;;;;;2.10;1.27;;;;;;;4.30;81.19;100964.91;5033649;28;20040;-76
2022/04/10 00:45:59;;;;;;;3.72;1.38;;;;;;;4.34;81.23;100968.13;5059601;28;20136;-77
2022/04/10 00:48:24;;;;;;;3.47;1.60;;;;;;;4.32;81.39;100978.09;5055291;28;20090;-76
2022/04/10 00:53:37;;;;;;;2.83;1.23;;;;;;;4.22;81.98;100955.88;5048447;28;20629;-77
2022/04/10 00:56:02;;;;;;;3.63;1.10;;;;;;;4.22;82.37;100953.22;5063108;28;20029;-76
2022/04/10 00:58:28;;;;;;;2.95;1.55;;;;;;;4.25;82.85;100951.13;5062650;28;20020;-76
2022/04/10 01:00:54;;;;;;;3.47;1.40;;;;;;;4.31;82.57;100950.63;5066503;28;20040;-76
2022/04/10 01:03:19;;;;;;;2.70;1.42;;;;;;;4.30;81.62;100927.63;5031785;28;20127;-76
2022/04/10 01:05:47;;;;;;;2.63;1.48;;;;;;;4.48;81.76;100941.19;5069440;28;20032;-77
2022/04/10 01:08:12;;;;;;;2.30;1.40;;;;;;;4.48;81.55;100932.38;5070229;28;20302;-76
2022/04/10 01:10:38;;;;;;;3.45;1.48;;;;;;;4.61;81.11;100939.16;5065068;28;20028;-77
2022/04/10 01:13:04;;;;;;;2.88;1.70;;;;;;;4.66;80.94;100928.13;5064871;28;20415;-77
2022/04/10 01:15:30;;;;;;;3.13;1.40;;;;;;;4.67;81.21;100924.47;5037690;28;20502;-76
2022/04/10 01:17:56;;;;;;;3.00;1.45;;;;;;;4.61;81.51;100917.00;5035238;28;20068;-76
2022/04/10 01:20:22;;;;;;;2.13;1.50;;;;;;;4.62;81.63;100914.19;5052432;28;20359;-76
2022/04/10 01:22:48;;;;;;;1.85;1.27;;;;;;;4.60;81.67;100907.31;5050127;28;20055;-76
2022/04/10 01:25:13;;;;;;;4.53;1.42;;;;;;;4.56;81.89;100885.44;5043948;28;20118;-77
2022/04/10 01:27:44;;;;;;;2.58;1.40;;;;;;;4.60;81.26;100897.53;5062307;28;20194;-77
2022/04/10 01:30:12;;;;;;;2.58;1.40;;;;;;;4.63;81.57;100902.59;5062769;28;20598;-76
2022/04/10 01:32:38;;;;;;;2.92;1.48;;;;;;;4.57;81.75;100883.63;5045463;28;20040;-77
2022/04/10 01:35:04;;;;;;;2.20;1.23;;;;;;;4.57;82.08;100881.78;5061710;28;20035;-76
2022/04/10 01:37:31;;;;;;;3.53;2.13;;;;;;;4.72;82.18;100876.13;5032937;28;20033;-77
2022/04/10 01:40:00;;;;;;;6.18;1.88;;;;;;;4.84;81.28;100875.03;5045769;28;20051;-76
2022/04/10 01:42:26;;;;;;;3.55;1.40;;;;;;;4.85;81.04;100874.06;5027524;28;20394;-76
2022/04/10 01:44:51;;;;;;;2.20;1.20;;;;;;;4.84;80.95;100870.56;5063956;28;20331;-76
2022/04/10 01:47:17;;;;;;;2.22;1.35;;;;;;;4.92;81.40;100871.69;5049432;28;20035;-76
2022/04/10 01:49:43;;;;;;;1.52;1.20;;;;;;;4.91;81.29;100868.19;5064064;28;20037;-76
2022/04/10 01:52:08;;;;;;;7.32;1.80;;;;;;;4.88;81.36;100867.63;5033515;28;20095;-76
2022/04/10 01:54:34;;;;;;;5.10;1.83;;;;;;;4.80;81.24;100853.16;5055943;28;20037;-76
2022/04/10 01:56:59;;;;;;;6.05;1.25;;;;;;;4.82;81.28;100850.34;5063207;28;20035;-76
2022/04/10 01:59:27;;;;;;;2.08;1.30;;;;;;;4.94;81.35;100851.06;5062209;28;20032;-77
2022/04/10 02:01:53;;;;;;;2.20;1.33;;;;;;;5.00;80.87;100840.72;5034024;28;20040;-76
2022/04/10 02:04:19;;;;;;;1.98;1.50;;;;;;;4.94;80.83;100837.75;5065900;28;20036;-76
2022/04/10 02:06:45;;;;;;;4.40;1.77;;;;;;;4.91;81.00;100836.19;5060379;28;20545;-76
2022/04/10 02:09:10;;;;;;;2.80;1.17;;;;;;;4.91;80.50;100838.03;5037895;28;20049;-76
2022/04/10 02:11:36;;;;;;;0.88;0.80;;;;;;;4.88;80.97;100835.66;5040990;28;20109;-76
2022/04/10 02:14:02;;;;;;;2.45;1.23;;;;;;;4.91;81.31;100835.38;5056152;28;20090;-76
2022/04/10 02:16:27;;;;;;;2.30;1.35;;;;;;;4.84;81.72;100835.94;5034724;28;20441;-77
2022/04/10 02:18:53;;;;;;;4.88;1.63;;;;;;;4.78;81.33;100835.63;5034545;28;20040;-76
2022/04/10 02:21:19;;;;;;;1.90;1.17;;;;;;;4.55;82.04;100816.34;5031007;28;20040;-76
2022/04/10 02:23:45;;;;;;;2.88;1.40;;;;;;;4.62;82.79;100839.63;5066207;28;20383;-76
2022/04/10 02:26:11;;;;;;;2.08;1.60;;;;;;;4.65;82.79;100830.53;5058021;28;20028;-76
2022/04/10 02:28:38;;;;;;;2.67;1.15;;;;;;;4.66;83.17;100824.25;5047454;28;20048;-77
2022/04/10 02:31:03;;;;;;;4.78;1.27;;;;;;;4.66;82.32;100810.06;5063153;28;20040;-76
2022/04/10 02:33:29;;;;;;;3.05;1.50;;;;;;;4.81;82.54;100825.50;5062517;28;20117;-75
2022/04/10 02:35:55;;;;;;;1.65;1.10;;;;;;;4.79;82.78;100819.50;5066307;28;20024;-76
2022/04/10 02:38:32;;;;;;;2.42;1.40;;;;;;;4.80;82.59;100815.00;5052427;28;20478;-77
2022/04/10 02:40:58;;;;;;;5.18;1.80;;;;;;;4.87;82.22;100818.81;5046295;28;20397;-76
2022/04/10 02:43:23;;;;;;;5.93;1.60;;;;;;;4.97;82.37;100813.50;5028149;28;20047;-76
2022/04/10 02:45:49;;;;;;;4.03;1.40;;;;;;;5.05;82.23;100816.31;5057635;28;20037;-76
2022/04/10 02:48:14;;;;;;;1.90;1.20;;;;;;;5.14;81.35;100804.00;5038879;28;20043;-75
2022/04/10 02:50:40;;;;;;;2.95;1.42;;;;;;;5.23;80.62;100806.63;5060537;28;20550;-76
2022/04/10 02:53:06;;;;;;;3.90;1.50;;;;;;;5.23;81.15;100792.47;5063600;28;20490;-77
2022/04/10 02:55:38;;;;;;;1.85;1.35;;;;;;;5.18;80.91;100789.38;5062169;28;20081;-77
2022/04/10 02:58:22;;;;;;;1.58;1.30;;;;;;;5.23;81.31;100800.47;5062349;28;20492;-76
2022/04/10 03:01:06;;;;;;;1.70;1.05;;;;;;;5.20;80.58;100793.59;5058282;28;20098;-76
2022/04/10 03:03:51;;;;;;;2.50;1.20;;;;;;;5.12;81.39;100781.97;5062249;28;20055;-76
2022/04/10 03:06:35;;;;;;;3.50;1.50;;;;;;;5.07;81.76;100771.69;5059380;28;20048;-76
2022/04/10 03:09:19;;;;;;;3.42;1.40;;;;;;;5.09;82.01;100779.56;5061050;28;20051;-77
2022/04/10 03:12:04;;;;;;;6.28;2.00;;;;;;;5.01;81.71;100754.47;5054148;28;20034;-76
2022/04/10 03:14:53;;;;;;;0.98;0.68;;;;;;;5.14;81.95;100767.50;5064907;28;20409;-76
2022/04/10 03:17:37;;;;;;;3.72;1.52;;;;;;;5.18;81.63;100762.72;5065706;28;20047;-76
2022/04/10 03:20:21;;;;;;;3.05;1.50;;;;;;;5.25;81.58;100759.34;5066655;28;20043;-76
2022/04/10 03:23:08;;;;;;;4.32;1.45;;;;;;;5.31;81.73;100767.78;5051352;28;20043;-76
2022/04/10 03:25:52;;;;;;;1.98;1.38;;;;;;;5.23;81.86;100750.66;5061242;28;20508;-76
2022/04/10 03:28:36;;;;;;;2.55;1.73;;;;;;;5.33;81.91;100761.31;5047679;28;20120;-76
2022/04/10 03:31:23;;;;;;;6.53;1.45;;;;;;;5.32;82.09;100756.13;5065523;28;20048;-77
2022/04/10 03:34:07;;;;;;;3.08;1.77;;;;;;;5.33;81.98;100744.50;5059883;28;20062;-76
2022/04/10 03:36:54;;;;;;;3.38;1.73;;;;;;;5.41;82.17;100748.13;5064202;28;20043;-76
2022/04/10 03:39:38;;;;;;;1.85;1.23;;;;;;;5.41;82.15;100748.13;5078552;28;20043;-76
2022/04/10 03:42:22;;;;;;;2.05;1.27;;;;;;;5.44;81.94;100739.81;5054619;28;20289;-76
2022/04/10 03:45:08;;;;;;;1.58;1.33;;;;;;;5.58;81.75;100751.03;5062966;28;20202;-76
2022/04/10 03:47:52;;;;;;;3.72;1.77;;;;;;;5.60;81.44;100738.41;5057983;28;20090;-76
2022/04/10 03:50:36;;;;;;;2.25;1.45;;;;;;;5.64;81.13;100737.97;5061379;28;20385;-76
2022/04/10 03:53:20;;;;;;;2.90;1.23;;;;;;;5.58;81.13;100733.19;5060405;28;20111;-76
2022/04/10 03:56:04;;;;;;;1.70;1.45;;;;;;;5.61;81.60;100742.75;5073979;28;20115;-76
2022/04/10 03:58:48;;;;;;;2.78;1.02;;;;;;;5.61;81.05;100732.94;5045266;28;20391;-76
2022/04/10 04:01:33;;;;;;;1.85;1.30;;;;;;;5.66;81.21;100736.00;5067009;28;20047;-76
2022/04/10 04:04:17;;;;;;;1.55;1.08;;;;;;;5.68;81.33;100734.00;5064097;28;20107;-77
2022/04/10 04:07:00;;;;;;;3.60;2.05;;;;;;;5.66;81.14;100730.69;5059132;28;20105;-77
2022/04/10 04:09:45;;;;;;;1.10;0.90;;;;;;;5.66;81.52;100727.13;5057147;28;20081;-77
2022/04/10 04:12:29;;;;;;;2.38;1.58;;;;;;;5.64;81.83;100735.31;5061325;28;20075;-76
2022/04/10 04:15:13;;;;;;;3.42;1.45;;;;;;;5.60;82.10;100722.41;5056238;28;20043;-77
2022/04/10 04:17:57;;;;;;;7.00;1.90;;;;;;;5.57;82.49;100714.69;5062428;28;20494;-75
2022/04/10 04:20:41;;;;;;;1.95;1.20;;;;;;;5.55;82.77;100716.66;5053276;28;20039;-76
2022/04/10 04:23:25;;;;;;;6.65;1.80;;;;;;;5.42;83.38;100696.47;5061082;28;20097;-76
2022/04/10 04:26:10;;;;;;;5.70;1.40;;;;;;;5.43;83.24;100708.00;5062145;28;20414;-77
2022/04/10 04:28:54;;;;;;;4.55;1.70;;;;;;;5.46;83.69;100705.03;5056987;28;20485;-78
2022/04/10 04:31:38;;;;;;;2.28;1.40;;;;;;;5.49;83.65;100716.25;5044118;28;20044;-77
2022/04/10 04:34:23;;;;;;;4.97;1.27;;;;;;;5.47;84.07;100712.03;5055724;28;20052;-77
2022/04/10 04:37:09;;;;;;;2.50;1.35;;;;;;;5.45;84.00;100722.00;5055384;28;20118;-78
2022/04/10 04:39:53;;;;;;;1.90;1.42;;;;;;;5.33;84.47;100705.34;5059395;28;20489;-78
2022/04/10 04:42:37;;;;;;;3.15;1.45;;;;;;;5.51;84.69;100721.44;5047131;28;20276;-78
2022/04/10 04:45:22;;;;;;;1.98;1.35;;;;;;;5.44;84.17;100705.16;5057966;28;20094;-78
2022/04/10 04:48:06;;;;;;;2.67;1.27;;;;;;;5.62;83.98;100715.09;5063107;28;20035;-78
2022/04/10 04:50:51;;;;;;;2.60;1.70;;;;;;;5.64;83.76;100711.31;5060183;28;20245;-76
2022/04/10 04:53:35;;;;;;;1.45;1.20;;;;;;;5.66;84.48;100720.00;5058772;28;20532;-76
2022/04/10 04:56:19;;;;;;;2.88;1.52;;;;;;;5.62;84.23;100712.44;5058539;28;20051;-75
2022/04/10 04:59:03;;;;;;;3.22;1.38;;;;;;;5.66;84.18;100716.47;5067766;28;20466;-78
2022/04/10 05:01:47;;;;;;;3.60;1.77;;;;;;;5.63;84.08;100687.44;5064584;28;20529;-78
2022/04/10 05:04:31;;;;;;;4.03;1.38;;;;;;;5.68;84.11;100711.84;5050628;28;20524;-77
2022/04/10 05:07:15;;;;;;;8.23;2.10;;;;;;;5.65;84.75;100691.63;5063411;28;20159;-78
2022/04/10 05:09:59;;;;;;;5.65;1.58;;;;;;;5.72;84.72;100711.41;5061399;28;20094;-78
2022/04/10 05:12:43;;;;;;;3.95;1.35;;;;;;;5.68;84.55;100704.66;5068334;28;20040;-78
2022/04/10 05:15:27;;;;;;;2.92;1.58;;;;;;;5.61;84.82;100679.59;5059672;28;20044;-77
2022/04/10 05:18:13;;;;;;;5.20;2.20;;;;;;;5.79;84.42;100697.47;5048626;28;20036;-77
2022/04/10 05:20:57;;;;;;;2.58;2.03;;;;;;;5.83;84.62;100698.88;5073380;28;20063;-78
2022/04/10 05:23:41;;;;;;;3.13;1.73;;;;;;;5.88;84.67;100699.28;5065018;28;20035;-78
2022/04/10 05:26:26;;;;;;;5.35;2.70;;;;;;;5.94;84.65;100707.56;5058298;28;20047;-78
2022/04/10 05:29:10;;;;;;;5.05;1.83;;;;;;;6.05;85.07;100698.53;5068745;28;20102;-77
2022/04/10 05:31:56;;;;;;;4.00;1.55;;;;;;;6.08;84.77;100695.56;5051217;28;20040;-77
2022/04/10 05:34:48;;;;;;;3.70;1.73;;;;;;;6.16;84.58;100682.28;5051893;28;20113;-76
2022/04/10 05:37:33;;;;;;;5.13;1.83;;;;;;;6.18;84.03;100681.31;5064044;28;20406;-77
2022/04/10 05:40:17;;;;;;;4.10;1.45;;;;;;;6.28;84.32;100687.44;5059415;28;20108;-77
2022/04/10 05:43:01;;;;;;;5.53;1.92;;;;;;;6.27;84.45;100680.41;5065040;28;20040;-77
2022/04/10 05:45:45;;;;;;;3.03;1.40;;;;;;;6.26;84.72;100671.56;5063187;28;20055;-76
2022/04/10 05:48:29;;;;;;;4.03;1.95;;;;;;;6.26;85.02;100682.25;5070546;28;20086;-75
2022/04/10 05:51:13;;;;;;;5.03;1.38;;;;;;;6.13;84.86;100671.91;5051600;28;20090;-76
2022/04/10 05:53:57;;;;;;;4.53;1.75;;;;;;;6.19;85.37;100674.97;5062672;28;20059;-77
2022/04/10 05:56:41;;;;;;;5.07;2.22;;;;;;;6.17;85.47;100683.16;5048502;28;22339;-77
2022/04/10 05:59:24;;;;;;;5.82;2.20;;;;;;;6.16;85.98;100658.25;5065527;28;20051;-78
2022/04/10 06:02:08;;;;;;;4.47;2.17;;;;;;;6.22;85.99;100680.03;5048149;28;20401;-77
2022/04/10 06:04:52;;;;;;;4.15;1.83;;;;;;;6.29;86.35;100673.09;5062860;28;20107;-76
2022/04/10 06:07:36;;;;;;;4.75;1.80;;;;;;;6.32;86.04;100672.78;5057661;28;20401;-78
2022/04/10 06:10:21;;;;;;;6.85;2.33;;;;;;;6.29;86.42;100673.94;5065727;28;20117;-77
2022/04/10 06:13:11;;;;;;;8.32;2.33;;;;;;;6.20;86.60;100656.16;5048959;28;20174;-77
2022/04/10 06:15:37;;;;;;;4.30;1.58;;;;;;;6.31;86.92;100681.81;5061037;28;20034;-78
2022/04/10 06:18:03;;;;;;;7.78;3.00;;;;;;;6.34;87.06;100678.84;5056258;28;20397;-77
2022/04/10 06:20:28;;;;;;;4.15;2.28;;;;;;;6.37;87.20;100675.84;5051909;28;20033;-78
2022/04/10 06:22:54;;;;;;;9.63;2.50;;;;;;;6.31;86.97;100676.47;5033599;28;20064;-78
2022/04/10 06:25:20;;;;;;;7.25;2.05;;;;;;;6.35;87.18;100677.84;5042438;28;20036;-77
2022/04/10 06:27:45;;;;;;;5.07;2.05;;;;;;;6.34;87.20;100678.84;5043249;28;20032;-78
2022/04/10 06:30:14;;;;;;;3.40;1.42;;;;;;;6.37;87.40;100673.19;5048401;28;20028;-77
2022/04/10 06:32:39;;;;;;;5.65;2.30;;;;;;;6.32;87.47;100673.63;5066328;28;20055;-79
2022/04/10 06:35:05;;;;;;;6.70;2.70;;;;;;;6.37;87.28;100675.84;5033082;28;20412;-79
2022/04/10 06:37:31;;;;;;;8.95;2.38;;;;;;;6.36;87.97;100669.69;5025788;28;20033;-78
2022/04/10 06:39:57;;;;;;;5.75;1.90;;;;;;;6.38;88.61;100662.38;5044511;28;20036;-78
2022/04/10 06:42:22;;;;;;;8.52;2.70;;;;;;;6.42;87.96;100657.56;5067924;28;20482;-78
2022/04/10 06:44:48;;;;;;;7.15;2.45;;;;;;;6.51;88.04;100659.31;5045868;28;20488;-75
2022/04/10 06:47:13;;;;;;;7.75;2.58;;;;;;;6.64;87.70;100666.09;5063771;28;20043;-77
2022/04/10 06:49:39;;;;;;;9.48;3.00;;;;;;;6.56;87.72;100649.03;5043863;28;20046;-77
2022/04/10 06:52:05;;;;;;;6.05;2.20;;;;;;;6.71;87.31;100664.50;5050602;28;20035;-78
2022/04/10 06:54:31;;;;;;;9.55;3.20;;;;;;;6.73;87.49;100670.56;5052321;28;20068;-78
2022/04/10 06:56:56;;;;;;;4.80;2.08;;;;;;;6.70;87.49;100660.16;5031040;28;20036;-76
2022/04/10 06:59:22;;;;;;;6.78;2.95;;;;;;;6.70;87.71;100657.50;5035681;28;20036;-77
2022/04/10 07:01:50;;;;;;;7.28;2.42;;;;;;;6.87;87.74;100655.78;5033282;28;20113;-77
2022/04/10 07:04:16;;;;;;;7.97;2.13;;;;;;;6.89;87.50;100653.81;5059260;28;20043;-76
2022/04/10 07:06:46;;;;;;;7.50;2.58;;;;;;;6.91;87.24;100649.16;5063881;28;20040;-77
2022/04/10 07:09:13;;;;;;;13.70;2.78;;;;;;;6.98;87.26;100643.03;5063137;28;20791;-78
2022/04/10 07:11:39;;;;;;;6.50;2.35;;;;;;;7.02;87.15;100643.56;5063897;28;20039;-78
2022/04/10 07:14:05;;;;;;;7.07;2.42;;;;;;;7.02;87.24;100639.06;5034678;28;20436;-78
2022/04/10 07:16:30;;;;;;;8.60;2.65;;;;;;;7.08;86.92;100639.44;5052933;28;20047;-77
2022/04/10 07:18:56;;;;;;;9.90;2.67;;;;;;;7.13;86.64;100632.63;5033986;28;20050;-77
2022/04/10 07:23:41;;;;;;;9.02;3.00;;;;;;;7.17;86.11;100625.97;5042088;28;20040;-76
2022/04/10 07:24:07;;;;;;;12.50;3.13;;;;;;;7.23;86.26;100624.50;5049171;28;20052;-76
2022/04/10 07:26:33;;;;;;;10.40;3.28;;;;;;;7.43;85.46;100617.91;5060939;28;20116;-76
2022/04/10 07:28:59;;;;;;;8.07;2.50;;;;;;;7.52;85.15;100628.69;5035677;28;20028;-76
2022/04/10 07:31:24;;;;;;;5.10;2.45;;;;;;;7.60;84.55;100620.69;5043321;28;20044;-76
2022/04/10 07:33:50;;;;;;;6.45;2.35;;;;;;;7.63;84.92;100613.19;5050264;28;20032;-76
2022/04/10 07:36:15;;;;;;;7.40;2.55;;;;;;;7.66;84.27;100610.16;5032946;28;20057;-76
2022/04/10 07:38:41;;;;;;;4.57;1.88;;;;;;;7.79;83.99;100615.09;5064679;28;20043;-77
2022/04/10 07:41:07;;;;;;;16.50;4.63;;;;;;;7.91;83.41;100603.09;5072947;28;20052;-76
2022/04/10 07:43:33;;;;;;;9.75;2.90;;;;;;;8.01;83.06;100586.88;5080025;28;20033;-77
2022/04/10 07:48:42;;;;;;;7.82;3.42;;;;;;;8.21;82.68;100598.16;5083219;28;20123;-76
2022/04/10 07:51:08;;;;;;;13.40;3.58;;;;;;;8.30;81.72;100599.00;5070392;28;20099;-77
2022/04/10 07:53:34;;;;;;;11.65;3.38;;;;;;;8.34;81.59;100601.19;5049424;28;20037;-76
2022/04/10 07:56:00;;;;;;;12.32;4.07;;;;;;;8.44;81.42;100602.88;5064471;28;20052;-77
2022/04/10 07:58:26;;;;;;;19.67;3.53;;;;;;;8.48;81.10;100596.19;5049967;28;20463;-77
2022/04/10 08:00:52;;;;;;;12.32;3.25;;;;;;;8.59;80.63;100591.34;5066127;28;20051;-77
2022/04/10 08:03:18;;;;;;;11.02;2.80;;;;;;;8.64;80.05;100590.00;5032044;28;20041;-77
2022/04/10 08:05:43;;;;;;;10.65;2.90;;;;;;;8.69;79.96;100590.34;5057231;28;20078;-78
2022/04/10 08:08:12;;;;;;;7.85;2.90;;;;;;;8.78;79.39;100600.06;5043356;28;20071;-75
2022/04/10 08:10:39;;;;;;;22.33;8.13;;;;;;;8.73;79.62;100580.94;5044214;28;20036;-77
2022/04/10 08:13:05;;;;;;;16.52;8.68;;;;;;;8.92;79.21;100599.41;5076033;28;20048;-78
2022/04/10 08:15:31;;;;;;;26.95;9.80;;;;;;;8.95;78.43;100591.00;5045962;28;20052;-75
2022/04/10 08:17:59;;;;;;;28.00;9.93;;;;;;;9.02;78.79;100593.84;5063317;28;20314;-76
2022/04/10 08:20:24;;;;;;;8.15;2.97;;;;;;;9.08;77.96;100595.84;5031570;28;20044;-76
2022/04/10 08:22:53;;;;;;;20.30;7.07;;;;;;;9.13;77.01;100590.81;5059330;28;20036;-77
2022/04/10 08:25:23;;;;;;;18.98;7.35;;;;;;;9.17;76.62;100588.63;5045330;28;20094;-76
2022/04/10 08:27:49;;;;;;;22.15;6.80;;;;;;;9.28;77.13;100596.31;5026309;28;20040;-76
2022/04/10 08:30:15;;;;;;;25.35;9.77;;;;;;;9.32;76.86;100592.28;5061294;28;20474;-78
2022/04/10 08:32:42;;;;;;;18.92;7.55;;;;;;;9.31;76.70;100568.28;5033278;28;20032;-76
2022/04/10 08:35:11;;;;;;;28.92;9.63;;;;;;;9.40;75.37;100578.84;5071240;28;20029;-76
2022/04/10 08:37:37;;;;;;;26.52;9.50;;;;;;;9.43;75.35;100583.03;5066205;28;20116;-76
2022/04/10 08:40:07;;;;;;;6.82;3.72;;;;;;;9.44;76.25;100569.41;5060403;28;20099;-76
2022/04/10 08:42:33;;;;;;;5.28;2.03;;;;;;;9.33;75.60;100551.00;5068846;28;20071;-76
2022/04/10 08:44:59;;;;;;;20.27;6.72;;;;;;;9.40;75.61;100564.59;5045805;28;20048;-76
2022/04/10 08:47:25;;;;;;;11.48;3.83;;;;;;;9.59;74.54;100577.59;5078751;28;20063;-76
2022/04/10 08:49:54;;;;;;;7.82;3.00;;;;;;;9.61;75.30;100586.31;5049553;28;20043;-76
2022/04/10 08:52:22;;;;;;;19.05;6.30;;;;;;;9.60;75.08;100575.75;5035014;28;20123;-77
2022/04/10 08:54:48;;;;;;;17.90;5.32;;;;;;;9.63;75.69;100578.94;5030669;28;20033;-77
2022/04/10 08:57:14;;;;;;;10.93;5.00;;;;;;;9.71;75.49;100579.88;5051857;28;20032;-78
2022/04/10 08:59:41;;;;;;;12.05;5.18;;;;;;;9.64;75.02;100569.84;5036618;28;20497;-75
2022/04/10 09:02:07;;;;;;;10.93;3.90;;;;;;;9.67;75.41;100569.50;5068025;28;20025;-76
2022/04/10 09:04:33;;;;;;;11.35;3.28;;;;;;;9.67;75.71;100574.88;5041395;28;20674;-76
2022/04/10 09:07:03;;;;;;;9.50;5.30;;;;;;;9.56;76.40;100569.06;5046463;28;20072;-77
2022/04/10 09:09:30;;;;;;;12.25;3.15;;;;;;;9.50;76.86;100573.28;5060820;28;20040;-79
2022/04/10 09:11:56;;;;;;;5.97;2.88;;;;;;;9.54;76.70;100574.59;5051931;28;20028;-79
2022/04/10 09:14:23;;;;;;;11.95;3.85;;;;;;;9.51;76.51;100553.47;5072678;28;20031;-79
2022/04/10 09:17:12;;;;;;;4.85;2.50;;;;;;;9.55;76.86;100559.31;5035584;28;20107;-79
2022/04/10 09:19:41;;;;;;;11.07;3.20;;;;;;;9.56;76.54;100566.38;5066556;28;20032;-79
2022/04/10 09:22:29;;;;;;;11.57;5.75;;;;;;;9.61;76.19;100562.16;5052651;28;20074;-79
2022/04/10 09:25:04;;;;;;;10.15;4.15;;;;;;;9.61;76.40;100554.09;5039713;28;20051;-79
2022/04/10 09:27:34;;;;;;;8.23;2.15;;;;;;;9.51;76.39;100564.22;5085192;28;20395;-80
2022/04/10 09:30:00;;;;;;;5.63;1.88;;;;;;;9.62;75.65;100574.56;5054339;28;20048;-79
2022/04/10 09:32:39;;;;;;;6.68;1.92;;;;;;;9.78;74.99;100556.72;5038663;28;20101;-79
2022/04/10 09:35:05;;;;;;;11.85;3.50;;;;;;;9.75;74.76;100554.38;5083157;28;20578;-76
2022/04/10 09:37:43;;;;;;;5.68;2.47;;;;;;;9.70;75.09;100552.22;5065035;28;20060;-76
2022/04/10 09:40:29;;;;;;;8.68;4.22;;;;;;;9.74;75.07;100569.66;5072905;28;20032;-75
2022/04/10 09:42:59;;;;;;;11.88;3.88;;;;;;;9.71;75.23;100553.88;5049122;28;20036;-76
2022/04/10 09:45:48;;;;;;;33.30;7.68;;;;;;;9.72;74.93;100560.09;5067850;28;20067;-76
2022/04/10 09:48:27;;;;;;;18.73;4.95;;;;;;;9.64;75.85;100569.84;5062019;28;20044;-77
2022/04/10 09:50:58;;;;;;;12.02;4.85;;;;;;;9.57;76.29;100568.88;5050850;28;20041;-76
2022/04/10 09:53:26;;;;;;;16.33;5.00;;;;;;;9.64;75.98;100559.13;5065722;28;20025;-76
2022/04/10 09:56:05;;;;;;;10.30;4.00;;;;;;;9.65;76.05;100559.94;5061352;28;20482;-76
2022/04/10 09:58:35;;;;;;;10.82;4.78;;;;;;;9.63;76.00;100580.75;5050655;28;20547;-79
2022/04/10 10:01:03;;;;;;;14.20;5.65;;;;;;;9.57;76.46;100574.25;5053232;28;20040;-78
2022/04/10 10:03:30;;;;;;;34.78;14.57;;;;;;;9.61;75.75;100569.38;5071275;28;20044;-79
2022/04/10 10:05:57;;;;;;;26.17;9.13;;;;;;;9.64;76.07;100563.66;5053556;28;20115;-79
2022/04/10 10:08:24;;;;;;;14.20;6.38;;;;;;;9.58;75.47;100532.97;5038287;28;20135;-79
2022/04/10 10:10:49;;;;;;;11.73;4.90;;;;;;;9.81;75.00;100564.41;5064652;28;20410;-80
2022/04/10 10:13:15;;;;;;;9.77;3.78;;;;;;;10.10;73.58;100559.19;5062642;28;20029;-80
2022/04/10 10:15:42;;;;;;;26.27;13.05;;;;;;;10.38;71.92;100544.47;5055121;28;20032;-80
2022/04/10 10:18:09;;;;;;;11.40;3.58;;;;;;;10.27;72.59;100546.53;5071565;28;20040;-80
2022/04/10 10:20:40;;;;;;;16.73;4.82;;;;;;;10.25;73.07;100539.63;5034789;28;20119;-79
2022/04/10 10:23:10;;;;;;;12.15;6.10;;;;;;;10.22;73.31;100534.63;5054001;28;20393;-80
2022/04/10 10:25:40;;;;;;;16.02;5.32;;;;;;;10.04;73.09;100516.94;5054527;28;20478;-80
2022/04/10 10:28:36;;;;;;;12.05;3.28;;;;;;;10.08;73.26;100534.38;5071079;28;20032;-79
2022/04/10 10:31:27;;;;;;;19.77;6.13;;;;;;;10.09;73.94;100535.22;5071855;28;20048;-80
2022/04/10 10:33:56;;;;;;;15.98;7.55;;;;;;;10.40;73.18;100527.13;5067192;28;20039;-80
2022/04/10 10:36:26;;;;;;;26.10;7.93;;;;;;;10.52;72.10;100522.97;5057426;28;20036;-80
2022/04/10 10:38:53;;;;;;;28.67;10.27;;;;;;;10.60;72.04;100521.25;5054930;28;20123;-80
2022/04/10 10:41:19;;;;;;;17.65;6.80;;;;;;;10.60;71.97;100521.25;5070559;28;20105;-80
2022/04/10 10:43:46;;;;;;;5.53;2.90;;;;;;;10.56;72.12;100518.94;5071643;28;20067;-81
2022/04/10 10:46:23;;;;;;;11.90;3.53;;;;;;;10.37;72.19;100505.97;5062778;28;20131;-79
2022/04/10 10:48:50;;;;;;;10.35;4.20;;;;;;;10.33;73.09;100529.69;5052997;28;20042;-80
2022/04/10 10:51:16;;;;;;;8.35;4.05;;;;;;;10.24;73.41;100527.19;5070716;28;20024;-80
2022/04/10 10:53:46;;;;;;;19.52;7.43;;;;;;;10.18;73.75;100520.69;5070091;28;20029;-79
2022/04/10 10:56:19;;;;;;;14.63;4.18;;;;;;;10.18;73.12;100514.50;5037175;28;20488;-80
2022/04/10 10:58:45;;;;;;;28.40;9.40;;;;;;;10.15;73.48;100488.00;5054441;28;20489;-80
2022/04/10 11:01:26;;;;;;;23.45;9.65;;;;;;;10.16;73.31;100503.09;5086702;28;20111;-80
2022/04/10 11:04:03;;;;;;;25.92;9.93;;;;;;;10.21;73.21;100508.75;5060562;28;20592;-79
2022/04/10 11:06:30;;;;;;;17.40;4.13;;;;;;;10.13;73.56;100488.16;5053279;28;20040;-80
2022/04/10 11:09:23;;;;;;;17.30;5.55;;;;;;;10.12;73.57;100514.19;5054457;28;20036;-81
2022/04/10 11:11:49;;;;;;;49.97;15.75;;;;;;;10.04;73.76;100492.75;5070828;28;20036;-81
2022/04/10 11:14:34;;;;;;;19.80;7.20;;;;;;;10.08;73.54;100483.34;5062053;28;20508;-82
2022/04/10 11:17:20;;;;;;;13.93;5.03;;;;;;;10.20;73.13;100482.91;5037708;28;20029;-81
2022/04/10 11:19:54;;;;;;;15.82;5.85;;;;;;;10.33;72.47;100483.16;5064246;28;20039;-82
2022/04/10 11:22:52;;;;;;;10.30;4.22;;;;;;;10.52;71.97;100509.53;5069612;28;20043;-81
2022/04/10 11:25:19;;;;;;;14.27;4.78;;;;;;;10.52;71.46;100489.88;5053353;28;20044;-81
2022/04/10 11:27:54;;;;;;;16.65;5.38;;;;;;;10.65;71.60;100524.22;5054065;28;20482;-80
2022/04/10 11:30:52;;;;;;;14.55;5.75;;;;;;;10.64;71.51;100517.16;5062979;28;20082;-80
2022/04/10 11:33:18;;;;;;;18.35;4.55;;;;;;;10.54;71.79;100495.94;5026381;28;20064;-81
2022/04/10 11:35:46;;;;;;;13.00;3.67;;;;;;;10.62;71.90;100516.53;5069214;28;20452;-81
2022/04/10 11:38:17;;;;;;;16.15;5.28;;;;;;;10.62;71.63;100508.47;5069506;28;20113;-81
2022/04/10 11:40:50;;;;;;;10.50;4.85;;;;;;;10.51;71.48;100491.75;5039361;28;20036;-81
2022/04/10 11:43:20;;;;;;;7.97;4.15;;;;;;;10.74;71.48;100521.28;5069400;28;20033;-80
2022/04/10 11:45:53;;;;;;;10.32;3.25;;;;;;;10.94;70.60;100512.69;5037345;28;20044;-81
2022/04/10 11:48:19;;;;;;;14.98;4.72;;;;;;;10.97;70.31;100499.69;5031209;28;20025;-81
2022/04/10 11:50:45;;;;;;;22.85;7.93;;;;;;;11.08;70.27;100503.78;5031335;28;20040;-80
2022/04/10 11:53:12;;;;;;;12.82;5.78;;;;;;;11.19;69.71;100502.47;5037122;28;20382;-80
2022/04/10 11:55:43;;;;;;;18.40;6.50;;;;;;;11.15;69.25;100466.19;5037759;28;20480;-80
2022/04/10 11:58:17;;;;;;;15.20;5.15;;;;;;;11.33;68.24;100480.09;5036985;28;20040;-80
2022/04/10 12:00:49;;;;;;;10.10;4.30;;;;;;;11.44;67.29;100481.47;5068425;28;20038;-81